Kryvyi Rih, Ukraine
Current Conditions -  °F | °C
As of 8:30 PM on Saturday 25 Oct 2014 (Local Time) from UKDR Reporting Station
Clear Clear  
Wind Chill: 22°   Ceiling: Unl
Heat Index: 30°   Visibility: 6mi
Dew Point: 18°   Wind: 9mph
Humidity: 60%   Direction: 60°ENE
Pressure: 30.5"   Gusts: NA
Location:  47.9°N, 33.38°E
Report Text: UKDR 251730Z 06004MPS 360V120 CAVOK M01/M08 Q1033 3609//65 NOSIG
Loading
Personal Weather Stations






























Interactive Weather Map
Tropical Storm Tracking
New forecast layout! Learn more

10-Day Weather Forecast

Advertisements
Track Severe Weather on mobile